Decatur, Arkansas
Current Conditions -  °F | °C
As of 3:53 AM on Sunday 23 Nov 2014 (Local Time) from KXNA Reporting Station
Overcast Overcast  
Wind Chill: 58°   Ceiling: 1400
Heat Index: 58°   Visibility: 10mi
Dew Point: 55°   Wind: 15mph
Humidity: 90%   Direction: 160°SSE
Pressure: 29.62"   Gusts: NA
Location:  36.34°N, 94.46°W
Report Text: KXNA 230953Z AUTO 16013KT 10SM OVC014 14/13 A2962 RMK AO2 RAB03E14 SLP026 P0000 T01440128 $
Loading
Personal Weather Stations






























Interactive Weather Map New forecast layout! Learn more

10-Day Weather Forecast

Advertisements
Track Severe Weather on mobile